createdAt,value
2023-02-19T00:01:47.178Z,100041.60
2023-02-19T00:04:23.845Z,100038.20
2023-02-19T00:06:51.344Z,100044.80
2023-02-19T00:09:21.720Z,100042.40
2023-02-19T00:11:49.059Z,100040.40
2023-02-19T00:14:20.696Z,100049.60
2023-02-19T00:16:48.652Z,100049.00
2023-02-19T00:19:19.073Z,100056.40
2023-02-19T00:21:46.632Z,100049.20
2023-02-19T00:24:14.619Z,100052.40
2023-02-19T00:26:43.329Z,100053.20
2023-02-19T00:29:17.896Z,100052.40
2023-02-19T00:31:45.373Z,100060.80
2023-02-19T00:34:13.797Z,100055.00
2023-02-19T00:36:42.306Z,100051.20
2023-02-19T00:39:15.065Z,100050.20
2023-02-19T00:41:42.024Z,100059.20
2023-02-19T00:44:11.633Z,100062.00
2023-02-19T00:46:45.556Z,100062.80
2023-02-19T00:49:20.389Z,100060.00
2023-02-19T00:51:48.818Z,100065.20
2023-02-19T00:54:16.655Z,100063.40
2023-02-19T00:56:43.658Z,100067.80
2023-02-19T00:59:10.713Z,100070.40
2023-02-19T01:01:37.438Z,100065.40
2023-02-19T01:04:06.475Z,100063.80
2023-02-19T01:06:34.751Z,100061.80
2023-02-19T01:09:02.395Z,100058.80
2023-02-19T01:11:28.981Z,100057.80
2023-02-19T01:14:00.506Z,100055.40
2023-02-19T01:16:27.224Z,100058.60
2023-02-19T01:18:54.332Z,100044.20
2023-02-19T01:21:24.682Z,100047.80
2023-02-19T01:23:53.189Z,100046.20
2023-02-19T01:26:32.452Z,100049.80
2023-02-19T01:29:01.316Z,100048.40
2023-02-19T01:31:29.945Z,100050.20
2023-02-19T01:34:02.357Z,100053.80
2023-02-19T01:36:33.394Z,100065.20
2023-02-19T01:39:05.130Z,100061.20
2023-02-19T01:41:36.240Z,100063.80
2023-02-19T01:44:27.455Z,100066.00
2023-02-19T01:46:57.045Z,100058.60
2023-02-19T01:49:36.159Z,100055.00
2023-02-19T01:52:19.986Z,100060.00
2023-02-19T01:54:48.873Z,100057.00
2023-02-19T01:57:26.576Z,100057.80
2023-02-19T02:00:03.770Z,100060.00
2023-02-19T02:02:30.361Z,100053.20
2023-02-19T02:05:00.130Z,100051.40
2023-02-19T02:07:45.853Z,100051.60
2023-02-19T02:10:21.710Z,100047.60
2023-02-19T02:12:50.800Z,100052.00
2023-02-19T02:15:18.491Z,100051.00
2023-02-19T02:18:25.723Z,100041.00
2023-02-19T02:21:08.412Z,100044.40
2023-02-19T02:24:10.606Z,100039.40
2023-02-19T02:27:12.350Z,100049.00
2023-02-19T02:30:13.265Z,100069.20
2023-02-19T02:33:39.027Z,100067.00
2023-02-19T02:36:13.275Z,100052.40
2023-02-19T02:38:44.520Z,100045.40
2023-02-19T02:41:14.408Z,100040.80
2023-02-19T02:43:41.582Z,100045.40
2023-02-19T02:46:15.512Z,100036.00
2023-02-19T02:48:53.290Z,100029.40
2023-02-19T02:51:28.811Z,100032.00
2023-02-19T02:54:36.520Z,100028.20
2023-02-19T02:57:03.924Z,100021.20
2023-02-19T02:59:36.445Z,100026.60
2023-02-19T03:02:22.945Z,100033.80
2023-02-19T03:05:33.214Z,100031.20
2023-02-19T03:08:10.601Z,100037.40
2023-02-19T03:10:55.404Z,100044.60
2023-02-19T03:13:49.353Z,100046.20
2023-02-19T03:16:46.585Z,100043.60
2023-02-19T03:19:20.359Z,100041.40
2023-02-19T03:22:01.237Z,100038.00
2023-02-19T03:24:53.332Z,100037.60
2023-02-19T03:27:23.332Z,100040.00
2023-02-19T03:29:56.428Z,100036.80
2023-02-19T03:32:39.033Z,100031.80
2023-02-19T03:35:40.324Z,100038.20
2023-02-19T03:38:19.668Z,100039.00
2023-02-19T03:41:18.329Z,100042.60
2023-02-19T03:44:02.821Z,100045.00
2023-02-19T03:46:48.267Z,100049.20
2023-02-19T03:50:08.413Z,100045.80
2023-02-19T03:52:59.160Z,100046.60
2023-02-19T03:55:58.804Z,100051.60
2023-02-19T03:58:55.350Z,100048.60
2023-02-19T04:01:38.786Z,100042.40
2023-02-19T04:04:35.830Z,100043.80
2023-02-19T04:07:02.468Z,100039.60
2023-02-19T04:09:37.672Z,100042.80
2023-02-19T04:12:06.249Z,100043.80
2023-02-19T04:14:51.539Z,100044.00
2023-02-19T04:17:28.182Z,100046.60
2023-02-19T04:19:59.079Z,100040.00
2023-02-19T04:22:27.373Z,100038.60
2023-02-19T04:24:55.806Z,100033.00
2023-02-19T04:27:22.409Z,100035.00
2023-02-19T04:29:48.956Z,100025.80
2023-02-19T04:32:15.743Z,100021.40
2023-02-19T04:34:42.323Z,100023.00
2023-02-19T04:37:08.850Z,100022.60
2023-02-19T04:39:35.702Z,100017.20
2023-02-19T04:42:02.518Z,100022.20
2023-02-19T04:44:29.065Z,100027.20
2023-02-19T04:46:55.610Z,100032.00
2023-02-19T04:49:22.121Z,100028.00
2023-02-19T04:51:48.577Z,100030.20
2023-02-19T04:54:15.055Z,100028.60
2023-02-19T04:56:41.497Z,100026.60
2023-02-19T04:59:08.249Z,100026.40
2023-02-19T05:01:34.751Z,100027.80
2023-02-19T05:04:01.344Z,100024.80
2023-02-19T05:06:27.876Z,100026.60
2023-02-19T05:08:54.418Z,100029.80
2023-02-19T05:11:23.114Z,100033.20
2023-02-19T05:13:49.809Z,100034.80
2023-02-19T05:16:16.560Z,100043.20
2023-02-19T05:18:46.041Z,100041.00
2023-02-19T05:21:13.869Z,100042.40
2023-02-19T05:23:40.927Z,100044.20
2023-02-19T05:26:17.333Z,100041.00
2023-02-19T05:28:46.333Z,100046.00
2023-02-19T05:31:14.500Z,100049.40
2023-02-19T05:33:42.593Z,100051.40
2023-02-19T05:36:13.380Z,100045.20
2023-02-19T05:38:41.171Z,100047.40
2023-02-19T05:41:14.696Z,100048.40
2023-02-19T05:43:44.206Z,100050.60
2023-02-19T05:46:15.039Z,100056.80
2023-02-19T05:48:42.493Z,100048.80
2023-02-19T05:51:13.689Z,100054.40
2023-02-19T05:53:41.817Z,100056.00
2023-02-19T05:56:38.291Z,100052.60
2023-02-19T05:59:18.047Z,100056.40
2023-02-19T06:01:45.316Z,100054.60
2023-02-19T06:04:13.588Z,100056.20
2023-02-19T06:06:41.827Z,100064.60
2023-02-19T06:09:09.087Z,100063.40
2023-02-19T06:11:36.458Z,100064.20
2023-02-19T06:14:03.813Z,100067.00
2023-02-19T06:16:33.076Z,100060.40
2023-02-19T06:19:03.351Z,100067.80
2023-02-19T06:21:29.832Z,100075.00
2023-02-19T06:23:56.357Z,100076.00
2023-02-19T06:26:24.940Z,100068.40
2023-02-19T06:28:53.900Z,100069.20
2023-02-19T06:31:22.048Z,100074.20
2023-02-19T06:33:50.088Z,100081.60
2023-02-19T06:36:20.793Z,100092.40
2023-02-19T06:38:47.337Z,100096.80
2023-02-19T06:41:14.343Z,100101.40
2023-02-19T06:43:41.850Z,100108.40
2023-02-19T06:46:10.906Z,100111.80
2023-02-19T06:48:39.915Z,100115.40
2023-02-19T06:51:06.604Z,100122.80
2023-02-19T06:53:33.061Z,100111.00
2023-02-19T06:56:30.111Z,100115.80
2023-02-19T06:59:01.391Z,100111.20
2023-02-19T07:01:33.078Z,100115.40
2023-02-19T07:04:00.040Z,100123.00
2023-02-19T07:06:29.561Z,100121.20
2023-02-19T07:08:58.166Z,100130.00
2023-02-19T07:11:28.621Z,100131.00
2023-02-19T07:13:59.402Z,100136.80
2023-02-19T07:16:27.121Z,100139.40
2023-02-19T07:18:57.804Z,100142.00
2023-02-19T07:21:26.888Z,100143.00
2023-02-19T07:23:54.012Z,100143.80
2023-02-19T07:26:21.854Z,100147.20
2023-02-19T07:28:50.566Z,100144.40
2023-02-19T07:31:20.041Z,100151.60
2023-02-19T07:33:47.570Z,100155.80
2023-02-19T07:36:17.102Z,100154.80
2023-02-19T07:38:44.639Z,100161.00
2023-02-19T07:41:12.189Z,100158.20
2023-02-19T07:43:40.109Z,100159.00
2023-02-19T07:46:11.369Z,100159.40
2023-02-19T07:48:40.387Z,100164.20
2023-02-19T07:51:18.247Z,100170.00
2023-02-19T07:53:46.868Z,100168.20
2023-02-19T07:56:13.977Z,100171.80
2023-02-19T07:58:41.371Z,100169.40
2023-02-19T08:01:48.902Z,100166.40
2023-02-19T08:04:16.163Z,100166.20
2023-02-19T08:06:43.020Z,100171.60
2023-02-19T08:09:09.662Z,100179.20
2023-02-19T08:12:02.467Z,100176.00
2023-02-19T08:14:29.251Z,100180.40
2023-02-19T08:16:55.916Z,100184.00
2023-02-19T08:19:22.911Z,100191.40
2023-02-19T08:21:50.134Z,100195.40
2023-02-19T08:24:16.704Z,100192.60
2023-02-19T08:26:43.264Z,100196.20
2023-02-19T08:29:09.741Z,100194.80
2023-02-19T08:31:36.630Z,100196.00
2023-02-19T08:34:03.469Z,100198.00
2023-02-19T08:36:30.544Z,100205.60
2023-02-19T08:38:57.269Z,100204.40
2023-02-19T08:41:23.798Z,100208.40
2023-02-19T08:43:50.356Z,100210.60
2023-02-19T08:46:17.051Z,100219.80
2023-02-19T08:48:43.713Z,100213.00
2023-02-19T08:51:11.739Z,100221.20
2023-02-19T08:53:40.592Z,100222.60
2023-02-19T08:56:11.931Z,100225.80
2023-02-19T08:58:39.084Z,100227.40
2023-02-19T09:01:11.850Z,100235.40
2023-02-19T09:03:39.183Z,100233.80
2023-02-19T09:06:06.479Z,100233.00
2023-02-19T09:08:33.113Z,100230.80
2023-02-19T09:11:03.926Z,100238.80
2023-02-19T09:13:30.510Z,100241.00
2023-02-19T09:15:57.078Z,100246.00
2023-02-19T09:18:25.331Z,100246.20
2023-02-19T09:20:52.060Z,100236.00
2023-02-19T09:23:18.792Z,100237.00
2023-02-19T09:25:45.415Z,100238.20
2023-02-19T09:28:12.436Z,100230.60
2023-02-19T09:30:38.984Z,100229.40
2023-02-19T09:33:05.546Z,100233.20
2023-02-19T09:35:32.034Z,100230.40
2023-02-19T09:38:01.383Z,100238.00
2023-02-19T09:40:29.868Z,100241.40
2023-02-19T09:42:56.944Z,100243.60
2023-02-19T09:45:25.733Z,100243.20
2023-02-19T09:47:56.637Z,100251.40
2023-02-19T09:50:34.792Z,100245.60
2023-02-19T09:53:08.039Z,100244.00
2023-02-19T09:55:39.880Z,100250.60
2023-02-19T09:58:26.510Z,100250.00
2023-02-19T10:00:56.051Z,100246.60
2023-02-19T10:03:30.346Z,100255.00
2023-02-19T10:06:23.022Z,100245.20
2023-02-19T10:09:05.159Z,100250.20
2023-02-19T10:11:32.033Z,100259.80
2023-02-19T10:14:18.571Z,100256.20
2023-02-19T10:16:48.590Z,100261.40
2023-02-19T10:19:16.442Z,100261.80
2023-02-19T10:21:44.209Z,100254.20
2023-02-19T10:24:29.415Z,100261.00
2023-02-19T10:26:56.468Z,100264.60
2023-02-19T10:29:24.285Z,100267.40
2023-02-19T10:32:23.484Z,100277.40
2023-02-19T10:35:15.943Z,100276.60
2023-02-19T10:37:50.987Z,100281.00
2023-02-19T10:40:21.733Z,100276.00
2023-02-19T10:43:02.376Z,100284.80
2023-02-19T10:45:47.885Z,100289.40
2023-02-19T10:48:28.456Z,100294.40
2023-02-19T10:51:04.472Z,100289.60
2023-02-19T10:53:47.415Z,100292.60
2023-02-19T10:56:26.526Z,100291.40
2023-02-19T10:58:53.297Z,100298.40
2023-02-19T11:01:24.172Z,100293.20
2023-02-19T11:04:13.236Z,100288.00
2023-02-19T11:06:39.874Z,100290.00
2023-02-19T11:09:30.368Z,100290.00
2023-02-19T11:11:58.889Z,100294.80
2023-02-19T11:14:29.110Z,100288.60
2023-02-19T11:16:58.628Z,100290.80
2023-02-19T11:19:43.644Z,100296.80
2023-02-19T11:22:37.309Z,100300.60
2023-02-19T11:25:13.935Z,100294.80
2023-02-19T11:27:54.777Z,100306.00
2023-02-19T11:30:30.141Z,100291.40
2023-02-19T11:33:22.021Z,100305.00
2023-02-19T11:35:53.430Z,100313.80
2023-02-19T11:38:21.107Z,100319.80
2023-02-19T11:41:34.817Z,100330.40
2023-02-19T11:44:48.058Z,100333.60
2023-02-19T11:47:56.438Z,100338.80
2023-02-19T11:51:04.924Z,100327.00
2023-02-19T11:53:37.948Z,100334.40
2023-02-19T11:56:19.018Z,100342.20
2023-02-19T11:58:51.220Z,100338.60
2023-02-19T12:01:30.211Z,100342.20
2023-02-19T12:05:04.890Z,100353.80
2023-02-19T12:08:03.740Z,100351.20
2023-02-19T12:11:18.670Z,100355.40
2023-02-19T12:14:22.513Z,100359.20
2023-02-19T12:17:10.525Z,100364.00
2023-02-19T12:19:43.106Z,100373.80
2023-02-19T12:22:36.823Z,100385.00
2023-02-19T12:25:29.205Z,100386.00
2023-02-19T12:28:08.690Z,100386.20
2023-02-19T12:31:17.372Z,100402.80
2023-02-19T12:34:14.639Z,100394.40
2023-02-19T12:37:15.699Z,100399.00
2023-02-19T12:40:19.452Z,100399.80
2023-02-19T12:43:00.856Z,100394.20
2023-02-19T12:45:49.606Z,100405.20
2023-02-19T12:48:46.868Z,100412.60
2023-02-19T12:51:59.844Z,100415.60
2023-02-19T12:54:45.866Z,100406.60
2023-02-19T12:57:20.889Z,100417.20
2023-02-19T13:00:16.377Z,100421.20
2023-02-19T13:03:20.370Z,100424.80
2023-02-19T13:05:58.056Z,100425.00
2023-02-19T13:09:03.560Z,100416.80
2023-02-19T13:11:41.381Z,100420.60
2023-02-19T13:14:21.041Z,100415.60
2023-02-19T13:16:55.555Z,100426.60
2023-02-19T13:19:21.976Z,100420.00
2023-02-19T13:22:23.289Z,100426.00
2023-02-19T13:24:51.055Z,100421.00
2023-02-19T13:27:42.439Z,100413.80
2023-02-19T13:30:39.817Z,100421.20
2023-02-19T13:33:34.176Z,100429.40
2023-02-19T13:36:17.848Z,100434.60
2023-02-19T13:38:48.758Z,100431.40
2023-02-19T13:41:26.891Z,100437.00
2023-02-19T13:43:58.843Z,100440.80
2023-02-19T13:46:37.390Z,100444.40
2023-02-19T13:49:22.255Z,100454.20
2023-02-19T13:51:52.720Z,100461.20
2023-02-19T13:54:36.603Z,100452.00
2023-02-19T13:57:22.024Z,100470.80
2023-02-19T13:59:54.719Z,100466.20
2023-02-19T14:02:21.400Z,100470.80
2023-02-19T14:05:10.350Z,100466.00
2023-02-19T14:07:50.811Z,100464.40
2023-02-19T14:10:45.778Z,100468.00
2023-02-19T14:13:47.103Z,100481.60
2023-02-19T14:16:47.764Z,100495.80
2023-02-19T14:19:41.118Z,100498.00
2023-02-19T14:22:45.536Z,100499.00
2023-02-19T14:25:30.354Z,100514.80
2023-02-19T14:28:09.899Z,100516.20
2023-02-19T14:31:10.454Z,100521.60
2023-02-19T14:33:43.608Z,100520.40
2023-02-19T14:36:26.979Z,100518.00
2023-02-19T14:39:01.865Z,100524.20
2023-02-19T14:41:36.579Z,100525.20
2023-02-19T14:44:07.386Z,100527.00
2023-02-19T14:47:06.466Z,100529.40
2023-02-19T14:50:00.480Z,100529.60
2023-02-19T14:52:36.266Z,100532.20
2023-02-19T14:55:31.839Z,100542.40
2023-02-19T14:58:03.439Z,100547.60
2023-02-19T15:00:38.770Z,100556.60
2023-02-19T15:03:23.441Z,100556.80
2023-02-19T15:05:57.577Z,100556.20
2023-02-19T15:08:33.691Z,100571.40
2023-02-19T15:11:02.896Z,100564.60
2023-02-19T15:13:30.994Z,100578.00
2023-02-19T15:15:59.118Z,100579.20
2023-02-19T15:18:30.240Z,100576.60
2023-02-19T15:21:05.979Z,100587.00
2023-02-19T15:23:35.498Z,100589.80
2023-02-19T15:26:04.002Z,100584.00
2023-02-19T15:28:33.852Z,100588.20
2023-02-19T15:31:01.562Z,100594.20
2023-02-19T15:33:28.324Z,100602.40
2023-02-19T15:36:00.064Z,100611.00
2023-02-19T15:38:28.398Z,100610.40
2023-02-19T15:40:58.152Z,100616.60
2023-02-19T15:43:37.632Z,100621.00
2023-02-19T15:46:15.900Z,100619.60
2023-02-19T15:48:57.756Z,100617.60
2023-02-19T15:51:45.821Z,100631.80
2023-02-19T15:54:30.361Z,100631.60
2023-02-19T15:57:08.950Z,100630.60
2023-02-19T15:59:41.409Z,100635.80
2023-02-19T16:02:15.482Z,100636.00
2023-02-19T16:04:44.594Z,100636.20
2023-02-19T16:07:28.171Z,100639.80
2023-02-19T16:10:22.206Z,100645.60
2023-02-19T16:13:01.348Z,100646.20
2023-02-19T16:15:31.592Z,100644.40
2023-02-19T16:17:59.679Z,100656.00
2023-02-19T16:20:31.168Z,100660.20
2023-02-19T16:23:05.117Z,100662.60
2023-02-19T16:25:44.337Z,100673.40
2023-02-19T16:28:20.104Z,100683.40
2023-02-19T16:31:04.067Z,100691.00
2023-02-19T16:33:35.852Z,100694.00
2023-02-19T16:36:40.877Z,100698.40
2023-02-19T16:39:18.883Z,100713.20
2023-02-19T16:41:46.139Z,100713.00
2023-02-19T16:44:21.430Z,100709.80
2023-02-19T16:46:57.893Z,100703.20
2023-02-19T16:49:24.747Z,100703.80
2023-02-19T16:51:56.561Z,100705.40
2023-02-19T16:54:25.367Z,100702.00
2023-02-19T16:56:51.892Z,100708.40
2023-02-19T16:59:24.736Z,100708.80
2023-02-19T17:01:52.507Z,100710.00
2023-02-19T17:04:19.646Z,100709.60
2023-02-19T17:06:49.941Z,100711.00
2023-02-19T17:09:16.792Z,100702.20
2023-02-19T17:11:43.637Z,100709.00
2023-02-19T17:14:11.023Z,100706.20
2023-02-19T17:16:40.819Z,100705.00
2023-02-19T17:19:17.759Z,100709.80
2023-02-19T17:21:46.133Z,100711.40
2023-02-19T17:24:13.947Z,100710.00
2023-02-19T17:26:40.890Z,100711.60
2023-02-19T17:29:13.368Z,100712.40
2023-02-19T17:31:39.928Z,100706.80
2023-02-19T17:34:06.501Z,100711.00
2023-02-19T17:36:33.044Z,100699.40
2023-02-19T17:39:01.949Z,100702.60
2023-02-19T17:41:29.369Z,100703.00
2023-02-19T17:43:56.024Z,100701.40
2023-02-19T17:46:26.962Z,100707.40
2023-02-19T17:48:54.469Z,100711.60
2023-02-19T17:51:21.881Z,100713.40
2023-02-19T17:53:48.584Z,100713.20
2023-02-19T17:56:20.088Z,100713.40
2023-02-19T17:58:50.188Z,100718.20
2023-02-19T18:01:16.867Z,100713.00
2023-02-19T18:03:44.185Z,100715.20
2023-02-19T18:06:13.995Z,100721.80
2023-02-19T18:08:55.279Z,100718.60
2023-02-19T18:11:22.846Z,100715.60
2023-02-19T18:13:51.944Z,100723.60
2023-02-19T18:16:22.203Z,100720.20
2023-02-19T18:18:49.225Z,100717.20
2023-02-19T18:21:15.963Z,100723.00
2023-02-19T18:23:42.872Z,100713.00
2023-02-19T18:26:11.072Z,100711.20
2023-02-19T18:28:38.892Z,100714.80
2023-02-19T18:31:06.382Z,100720.60
2023-02-19T18:33:34.799Z,100718.40
2023-02-19T18:36:01.622Z,100714.80
2023-02-19T18:38:28.432Z,100720.80
2023-02-19T18:40:56.374Z,100722.20
2023-02-19T18:43:24.366Z,100715.80
2023-02-19T18:45:50.866Z,100713.80
2023-02-19T18:48:17.382Z,100714.60
2023-02-19T18:50:43.899Z,100713.00
2023-02-19T18:53:11.050Z,100706.60
2023-02-19T18:55:37.697Z,100708.20
2023-02-19T18:58:04.150Z,100716.40
2023-02-19T19:00:30.924Z,100724.00
2023-02-19T19:02:59.021Z,100724.60
2023-02-19T19:05:27.104Z,100721.00
2023-02-19T19:07:56.980Z,100710.40
2023-02-19T19:10:23.740Z,100701.60
2023-02-19T19:12:51.379Z,100709.00
2023-02-19T19:15:19.981Z,100706.20
2023-02-19T19:17:47.594Z,100712.00
2023-02-19T19:20:21.570Z,100714.20
2023-02-19T19:22:51.003Z,100713.80
2023-02-19T19:25:22.519Z,100705.00
2023-02-19T19:27:50.488Z,100712.20
2023-02-19T19:30:20.985Z,100703.80
2023-02-19T19:32:49.389Z,100697.60
2023-02-19T19:35:21.145Z,100699.40
2023-02-19T19:37:48.880Z,100698.80
2023-02-19T19:40:17.642Z,100694.60
2023-02-19T19:42:44.658Z,100691.00
2023-02-19T19:45:13.983Z,100688.40
2023-02-19T19:47:40.462Z,100695.40
2023-02-19T19:50:07.831Z,100698.60
2023-02-19T19:52:35.302Z,100700.40
2023-02-19T19:55:09.716Z,100702.20
2023-02-19T19:57:38.523Z,100699.40
2023-02-19T20:00:11.246Z,100694.60
2023-02-19T20:02:37.762Z,100698.20
2023-02-19T20:05:05.507Z,100693.60
2023-02-19T20:07:32.034Z,100702.80
2023-02-19T20:09:58.529Z,100695.00
2023-02-19T20:12:25.218Z,100698.80
2023-02-19T20:14:55.055Z,100695.00
2023-02-19T20:17:26.031Z,100692.40
2023-02-19T20:19:57.379Z,100684.20
2023-02-19T20:22:24.004Z,100677.80
2023-02-19T20:24:52.808Z,100685.40
2023-02-19T20:27:21.689Z,100679.40
2023-02-19T20:29:48.956Z,100668.60
2023-02-19T20:32:19.878Z,100672.00
2023-02-19T20:34:47.796Z,100664.00
2023-02-19T20:37:14.484Z,100666.00
2023-02-19T20:39:41.190Z,100668.40
2023-02-19T20:42:07.890Z,100660.00
2023-02-19T20:44:34.414Z,100655.40
2023-02-19T20:47:01.081Z,100653.20
2023-02-19T20:49:30.785Z,100644.00
2023-02-19T20:52:06.410Z,100660.80
2023-02-19T20:54:35.071Z,100638.40
2023-02-19T20:57:04.741Z,100643.20
2023-02-19T20:59:34.931Z,100646.60
2023-02-19T21:02:17.107Z,100645.40
2023-02-19T21:04:43.852Z,100657.40
2023-02-19T21:07:10.512Z,100653.60
2023-02-19T21:09:37.190Z,100660.80
2023-02-19T21:12:04.035Z,100672.80
2023-02-19T21:14:31.123Z,100667.00
2023-02-19T21:16:57.673Z,100665.80
2023-02-19T21:19:24.356Z,100658.00
2023-02-19T21:21:50.970Z,100663.80
2023-02-19T21:24:17.817Z,100665.80
2023-02-19T21:26:44.998Z,100672.80
2023-02-19T21:29:19.125Z,100663.80
2023-02-19T21:31:49.906Z,100667.80
2023-02-19T21:34:21.101Z,100663.80
2023-02-19T21:36:48.013Z,100662.20
2023-02-19T21:39:18.544Z,100665.80
2023-02-19T21:41:46.229Z,100670.80
2023-02-19T21:44:13.082Z,100669.00
2023-02-19T21:46:40.442Z,100672.00
2023-02-19T21:49:06.946Z,100676.20
2023-02-19T21:51:39.668Z,100676.20
2023-02-19T21:54:08.481Z,100669.00
2023-02-19T21:56:36.579Z,100663.80
2023-02-19T21:59:03.733Z,100662.40
2023-02-19T22:01:34.802Z,100661.80
2023-02-19T22:04:01.411Z,100671.00
2023-02-19T22:06:30.220Z,100670.40
2023-02-19T22:08:58.164Z,100667.20
2023-02-19T22:11:25.346Z,100661.20
2023-02-19T22:13:52.049Z,100668.80
2023-02-19T22:16:19.090Z,100664.60
2023-02-19T22:18:51.849Z,100665.60
2023-02-19T22:21:20.711Z,100660.80
2023-02-19T22:23:49.391Z,100660.60
2023-02-19T22:26:25.346Z,100667.00
2023-02-19T22:28:52.986Z,100678.20
2023-02-19T22:31:23.461Z,100671.20
2023-02-19T22:33:50.812Z,100669.40
2023-02-19T22:36:32.689Z,100669.60
2023-02-19T22:39:00.628Z,100677.60
2023-02-19T22:41:27.394Z,100683.20
2023-02-19T22:43:56.204Z,100686.00
2023-02-19T22:46:26.644Z,100688.40
2023-02-19T22:48:53.161Z,100689.60
2023-02-19T22:51:23.372Z,100693.40
2023-02-19T22:53:53.951Z,100691.40
2023-02-19T22:56:24.086Z,100688.20
2023-02-19T22:58:51.614Z,100693.80
2023-02-19T23:01:18.810Z,100686.00
2023-02-19T23:03:51.479Z,100693.20
2023-02-19T23:06:27.667Z,100694.00
2023-02-19T23:08:57.746Z,100693.40
2023-02-19T23:11:29.092Z,100692.40
2023-02-19T23:13:56.681Z,100690.40
2023-02-19T23:16:23.585Z,100692.40
2023-02-19T23:18:50.404Z,100698.40
2023-02-19T23:21:18.790Z,100692.80
2023-02-19T23:23:46.133Z,100691.00
2023-02-19T23:26:14.587Z,100691.80
2023-02-19T23:28:43.738Z,100690.40
2023-02-19T23:31:11.665Z,100690.40
2023-02-19T23:33:39.801Z,100688.20
2023-02-19T23:36:07.886Z,100689.40
2023-02-19T23:38:34.626Z,100692.80
2023-02-19T23:41:01.292Z,100686.60
2023-02-19T23:43:27.853Z,100683.80
2023-02-19T23:45:54.464Z,100686.60
2023-02-19T23:48:20.985Z,100688.20
2023-02-19T23:50:47.397Z,100676.80
2023-02-19T23:53:14.059Z,100685.20
2023-02-19T23:55:40.596Z,100680.20
2023-02-19T23:58:07.032Z,100678.20
